Helena, Montana
Current Conditions -  °F | °C
As of 12:53 AM on Sunday 26 Oct 2014 (Local Time) from KHLN Reporting Station
Clear Clear  
Wind Chill: 45°   Ceiling: Unl
Heat Index: 48°   Visibility: 10mi
Dew Point: 41°   Wind: 7mph
Humidity: 77%   Direction: 210°SSW
Pressure: 29.65"   Gusts: NA
Location:  46.59°N, 112.02°W
Report Text: KHLN 260653Z AUTO 21006KT 10SM CLR 09/05 A2965 RMK AO2 SLP052 T00890050 401720022
Loading
Personal Weather Stations






























Interactive Weather Map New forecast layout! Learn more

10-Day Weather Forecast

Advertisements
Track Severe Weather on mobile